TimeEDT,TemperatureF,Dew PointF,Humidity,Sea Level PressureIn,VisibilityMPH,Wind Direction,Wind SpeedMPH,Gust SpeedMPH,PrecipitationIn,Events,Conditions,WindDirDegrees,DateUTC
12:53 AM,54.0,39.0,57,30.31,10.0,Calm,Calm,-,N/A,,Clear,0,2012-10-13 04:53:00
1:53 AM,50.0,41.0,71,30.30,10.0,Calm,Calm,-,N/A,,Clear,0,2012-10-13 05:53:00
2:53 AM,50.0,41.0,71,30.29,10.0,Calm,Calm,-,N/A,,Clear,0,2012-10-13 06:53:00
3:53 AM,48.0,39.9,74,30.28,10.0,Calm,Calm,-,N/A,,Clear,0,2012-10-13 07:53:00
4:53 AM,48.0,41.0,77,30.27,10.0,Calm,Calm,-,N/A,,Clear,0,2012-10-13 08:53:00
5:53 AM,46.9,41.0,80,30.27,10.0,Calm,Calm,-,N/A,,Clear,0,2012-10-13 09:53:00
6:53 AM,46.0,41.0,83,30.25,10.0,Calm,Calm,-,N/A,,Clear,0,2012-10-13 10:53:00
7:53 AM,48.0,43.0,83,30.25,10.0,Calm,Calm,-,N/A,,Clear,0,2012-10-13 11:53:00
8:53 AM,50.0,44.1,80,30.25,10.0,SE,4.6,-,N/A,,Clear,130,2012-10-13 12:53:00
9:53 AM,55.0,46.0,72,30.25,10.0,SE,5.8,-,N/A,,Clear,140,2012-10-13 13:53:00
10:53 AM,61.0,52.0,72,30.23,10.0,South,5.8,-,N/A,,Clear,180,2012-10-13 14:53:00
11:53 AM,63.0,55.0,75,30.22,10.0,South,10.4,-,N/A,,Mostly Cloudy,180,2012-10-13 15:53:00
12:16 PM,64.4,55.4,73,30.21,10.0,South,9.2,-,N/A,,Overcast,190,2012-10-13 16:16:00
12:53 PM,66.9,57.0,70,30.20,10.0,South,5.8,-,N/A,,Mostly Cloudy,190,2012-10-13 16:53:00
1:11 PM,66.2,57.2,73,30.20,10.0,South,5.8,-,N/A,,Overcast,190,2012-10-13 17:11:00
1:53 PM,69.1,59.0,70,30.17,10.0,South,6.9,-,N/A,,Mostly Cloudy,190,2012-10-13 17:53:00
2:53 PM,72.0,62.1,71,30.13,10.0,South,9.2,16.1,N/A,,Mostly Cloudy,180,2012-10-13 18:53:00
3:53 PM,73.0,63.0,71,30.11,10.0,South,10.4,-,N/A,,Mostly Cloudy,180,2012-10-13 19:53:00
4:49 PM,73.4,62.6,69,30.10,10.0,South,6.9,-,N/A,,Mostly Cloudy,190,2012-10-13 20:49:00
4:53 PM,73.9,63.0,68,30.09,10.0,South,8.1,18.4,N/A,,Mostly Cloudy,190,2012-10-13 20:53:00
5:53 PM,73.0,64.0,73,30.09,10.0,South,5.8,-,N/A,,Mostly Cloudy,180,2012-10-13 21:53:00
6:53 PM,72.0,63.0,73,30.08,10.0,SSE,6.9,-,N/A,,Scattered Clouds,160,2012-10-13 22:53:00
7:53 PM,71.6,62.6,73,30.07,10.0,South,6.9,-,N/A,,Scattered Clouds,170,2012-10-13 23:53:00
8:53 PM,70.0,62.1,76,30.07,10.0,South,8.1,-,N/A,,Mostly Cloudy,170,2012-10-14 00:53:00
9:53 PM,69.8,62.6,78,30.07,10.0,South,5.8,-,N/A,,Clear,180,2012-10-14 01:53:00
10:53 PM,69.1,61.0,75,30.05,10.0,South,6.9,-,N/A,,Clear,180,2012-10-14 02:53:00
11:53 PM,69.1,60.1,73,30.04,10.0,South,6.9,-,N/A,,Clear,180,2012-10-14 03:53:00